createdAt,value
2023-03-06T00:01:18.536Z,4.50
2023-03-06T00:11:20.615Z,5.73
2023-03-06T00:21:22.056Z,4.70
2023-03-06T00:31:23.906Z,4.30
2023-03-06T00:41:25.443Z,5.82
2023-03-06T00:51:27.463Z,5.63
2023-03-06T01:01:29.533Z,5.73
2023-03-06T01:11:31.590Z,5.90
2023-03-06T01:21:33.042Z,7.13
2023-03-06T01:31:34.449Z,5.57
2023-03-06T01:41:36.371Z,5.88
2023-03-06T01:51:44.007Z,6.40
2023-03-06T02:01:46.671Z,7.33
2023-03-06T02:11:48.073Z,8.02
2023-03-06T02:21:49.830Z,7.20
2023-03-06T02:31:51.364Z,8.93
2023-03-06T02:41:52.778Z,7.50
2023-03-06T02:51:55.215Z,8.25
2023-03-06T03:01:56.742Z,7.90
2023-03-06T03:11:58.077Z,6.00
2023-03-06T03:21:59.668Z,6.22
2023-03-06T03:32:01.279Z,6.53
2023-03-06T03:42:02.686Z,6.80
2023-03-06T03:52:04.308Z,8.85
2023-03-06T04:02:05.843Z,6.97
2023-03-06T04:12:07.866Z,7.37
2023-03-06T04:22:09.404Z,8.20
2023-03-06T04:32:11.093Z,9.75
2023-03-06T04:42:12.944Z,7.80
2023-03-06T04:52:14.447Z,8.60
2023-03-06T05:02:16.881Z,7.75
2023-03-06T05:12:18.381Z,8.80
2023-03-06T05:22:19.913Z,7.57
2023-03-06T05:32:21.958Z,7.25
2023-03-06T05:42:23.608Z,9.18
2023-03-06T05:52:25.072Z,9.77
2023-03-06T06:02:26.591Z,7.87
2023-03-06T06:12:28.233Z,8.70
2023-03-06T06:22:29.757Z,8.83
2023-03-06T06:32:31.321Z,9.93
2023-03-06T06:42:39.088Z,11.63
2023-03-06T06:52:41.417Z,12.40
2023-03-06T07:02:42.984Z,11.03
2023-03-06T07:12:44.412Z,8.63
2023-03-06T07:22:51.200Z,7.68
2023-03-06T07:32:55.490Z,8.03
2023-03-06T07:43:06.225Z,8.33
2023-03-06T07:53:11.625Z,8.30
2023-03-06T08:03:13.752Z,10.37
2023-03-06T08:13:15.187Z,9.80
2023-03-06T08:23:16.623Z,7.38
2023-03-06T08:33:18.039Z,9.67
2023-03-06T08:43:19.423Z,6.50
2023-03-06T08:53:22.698Z,6.90
2023-03-06T09:03:30.903Z,11.82
2023-03-06T09:13:32.258Z,8.53
2023-03-06T09:23:34.148Z,6.63
2023-03-06T09:33:35.562Z,10.05
2023-03-06T09:43:39.036Z,7.40
2023-03-06T09:53:56.745Z,7.93
2023-03-06T10:04:30.635Z,7.95
2023-03-06T10:14:34.886Z,8.60
2023-03-06T10:24:47.342Z,7.53
2023-03-06T10:34:50.058Z,7.53
2023-03-06T10:45:10.901Z,6.43
2023-03-06T10:55:23.708Z,5.20
2023-03-06T11:05:25.150Z,5.43
2023-03-06T11:15:28.207Z,4.80
2023-03-06T11:25:55.089Z,4.83
2023-03-06T11:36:05.306Z,4.30
2023-03-06T11:46:28.867Z,4.18
2023-03-06T11:57:01.738Z,3.57
2023-03-06T12:07:22.236Z,2.27
2023-03-06T12:17:29.459Z,4.22
2023-03-06T12:27:58.150Z,3.80
2023-03-06T12:38:22.517Z,3.33
2023-03-06T12:48:29.427Z,2.20
2023-03-06T12:58:31.374Z,2.22
2023-03-06T13:08:57.671Z,1.47
2023-03-06T13:19:18.285Z,1.30
2023-03-06T13:29:38.201Z,1.70
2023-03-06T13:39:54.715Z,1.30
2023-03-06T13:49:57.275Z,1.40
2023-03-06T14:00:14.484Z,1.35
2023-03-06T14:10:21.305Z,1.00
2023-03-06T14:20:33.265Z,1.23
2023-03-06T14:30:34.807Z,1.50
2023-03-06T14:40:42.930Z,1.48
2023-03-06T14:50:56.075Z,1.80
2023-03-06T15:01:02.208Z,3.57
2023-03-06T15:11:05.747Z,5.53
2023-03-06T15:21:21.851Z,4.47
2023-03-06T15:31:27.738Z,3.47
2023-03-06T15:41:37.711Z,4.60
2023-03-06T15:51:39.156Z,6.38
2023-03-06T16:01:40.638Z,7.63
2023-03-06T16:11:44.881Z,7.00
2023-03-06T16:21:46.539Z,8.63
2023-03-06T16:31:48.289Z,7.63
2023-03-06T16:41:50.593Z,6.70
2023-03-06T16:51:53.029Z,8.73
2023-03-06T17:01:54.540Z,9.80
2023-03-06T17:11:56.080Z,10.57
2023-03-06T17:21:57.815Z,11.02
2023-03-06T17:31:59.362Z,10.07
2023-03-06T17:42:03.214Z,10.93
2023-03-06T17:52:05.848Z,11.37
2023-03-06T18:02:07.414Z,11.38
2023-03-06T18:12:09.202Z,9.97
2023-03-06T18:22:10.754Z,11.43
2023-03-06T18:32:12.277Z,10.48
2023-03-06T18:42:14.027Z,11.10
2023-03-06T18:52:15.535Z,6.37
2023-03-06T19:02:17.053Z,9.23
2023-03-06T19:12:18.604Z,10.52
2023-03-06T19:22:19.999Z,10.77
2023-03-06T19:32:22.282Z,10.60
2023-03-06T19:42:23.986Z,9.45
2023-03-06T19:52:25.798Z,7.33
2023-03-06T20:02:27.866Z,9.77
2023-03-06T20:12:29.535Z,7.60
2023-03-06T20:22:30.918Z,10.43
2023-03-06T20:32:33.180Z,8.63
2023-03-06T20:42:34.681Z,8.85
2023-03-06T20:52:36.324Z,9.57
2023-03-06T21:02:37.791Z,8.37
2023-03-06T21:12:39.215Z,11.00
2023-03-06T21:22:40.632Z,10.82
2023-03-06T21:32:42.110Z,8.97
2023-03-06T21:42:43.521Z,9.93
2023-03-06T21:52:44.998Z,12.38
2023-03-06T22:02:47.055Z,9.97
2023-03-06T22:12:48.420Z,9.57
2023-03-06T22:22:49.885Z,12.45
2023-03-06T22:32:53.180Z,11.90
2023-03-06T22:42:54.726Z,11.33
2023-03-06T22:52:56.056Z,9.23
2023-03-06T23:02:57.505Z,9.15
2023-03-06T23:12:59.727Z,7.27
2023-03-06T23:23:01.194Z,6.87
2023-03-06T23:33:02.647Z,7.93
2023-03-06T23:43:04.171Z,5.47
2023-03-06T23:53:05.658Z,7.23
